LOWLLOWS

Guest
Details From LOWL - Linz Hoersching
To LOWS - Salzburg Maxglan
Flight Number -
Tags generated
Created
Modified
Stats Distance 55 nm / 101 km
Max Altitude 1,200 ft / 366 m
Waypoints 3
Social Downloads 1
Likes 0
Share VATSIM

Download

Looking for another format? Having issues loading an existing format? Contact us
Advertisement - Login to hide

Notes

Basic altitude profile: - Ascent Rate: 2500ft/min - Ascent Speed: 180kts - Cruise Altitude: 12000ft - Cruise Speed: 250kts - Descent Rate: 1500ft/min - Descent Speed: 200kts Options: - Use NATs: no - Use PACOTS: no - Use low airways: no - Use high airways: yes

Route

LOWL LNZ LOWS

ID Type Via Altitude Latitude Longitude Leg Dist Tot Dist Heading (true) Name
O LOWL APT - 0 ft / 0 m 48.23322˚ 14.18751˚ - 0 nm - Linz Hoersching
LNZ VOR - 1,200 ft / 366 m 48.22971˚ 14.10316˚ 3 nm 3 nm 266° / 266° LINZ VOR-DME
O LOWS APT - 0 ft / 0 m 47.79333˚ 13.00433˚ 51 nm 54 nm 240° / 239° Salzburg Maxglan

Altitude Profile

Advertisement - Login to hide

LOWL

Details ICAO LOWL (LNZ)
Name Linz Hoersching
Region Austria
Timezone Europe/Vienna (UTC+1.0)
Stats Elevation 978 ft / 298 m (AMSL)
Location 48.233219° 14.187513°
Runways 1
Magnetic Variation 3.725° E

METAR

LOWL 130120Z AUTO 25006KT 9999 FEW042 SCT048 BKN130 01/M01 Q1019

Decode

TAF

TAF LOWL 122315Z 1300/1324 25005KT 8000 FEW025 BKN120 TX03/1313Z TNM01/1322Z PROB30 1304/1308 VRB02KT 4000 BR BKN008 BECMG 1308/1310 08005KT CAVOK BECMG 1319/1322 VRB02KT 8000 SCT040 BKN070

Decode

Departure Runways

ID Width Length Bearing (true) Bearing (mag) Surface Threshold Offset Overrun Length
09 197 ft / 60 m 9,802 ft / 2,988 m 86.49° 82.76° Asphalt 820 ft / 250 m 0 ft / 0 m
27 197 ft / 60 m 9,802 ft / 2,988 m 266.52° 262.79° Asphalt 492 ft / 150 m 0 ft / 0 m

LOWS

Details ICAO LOWS (SZG)
Name Salzburg Maxglan
Region Austria
Timezone Europe/Vienna (UTC+1.0)
Stats Elevation 1,411 ft / 430 m (AMSL)
Location 47.793333° 13.004333°
Runways 1
Magnetic Variation 3.427° E

METAR

LOWS 130120Z AUTO 18002KT 5000 BR FEW046 OVC070 M01/M01 Q1019

Decode

TAF

TAF LOWS 122315Z 1300/1324 15006KT 9999 SCT030 BKN050 TX04/1312Z TNM02/1306Z TEMPO 1300/1318 15012KT BECMG 1304/1306 FEW050 SCT120 BECMG 1308/1310 CAVOK BECMG 1318/1320 9999 FEW080 BKN120

Decode

Destination Runways

ID Width Length Bearing (true) Bearing (mag) Surface Threshold Offset Overrun Length
16 148 ft / 45 m 9,024 ft / 2,751 m 157.08° 153.65° Concrete 656 ft / 200 m 0 ft / 0 m
34 148 ft / 45 m 9,024 ft / 2,751 m 337.09° 333.66° Concrete 787 ft / 240 m 0 ft / 0 m

Approach Navaids

Runway Type Ident Frequency Range Bearing (true) Bearing (mag) Slope Elevation
16 Localiser OES 109.90 MHz 18 nm / 33 km 157.53° 154.11° - 1,411 ft / 430 m (AMSL)
16 Glidescope OES 109.90 MHz 10 nm / 19 km 157.09° 153.66° 3.00° 1,446 ft / 441 m (AMSL)
16 DME OES 109.90 MHz 18 nm / 33 km - - - 1,446 ft / 441 m (AMSL)

Popular Alternatives